Columbia, North Carolina
Current Conditions -  °F | °C
As of 11:15 PM on Tuesday 25 Nov 2014 (Local Time) from KEDE Reporting Station
Moderate Rain Moderate Rain  
Wind Chill: 53°   Ceiling: 9000
Heat Index: 53°   Visibility: 7mi
Dew Point: 52°   Wind: 6mph
Humidity: 98%   Direction: 50°NE
Pressure: 30.08"   Gusts: NA
Location:  35.92°N, 76.25°W
Report Text: KEDE 260415Z AUTO 05005KT 7SM RA OVC090 12/11 A3008 RMK AO2 P0001 T01160113
Loading
Personal Weather Stations






























Interactive Weather Map New forecast layout! Learn more

10-Day Weather Forecast

Advertisements
Track Severe Weather on mobile